sensor_id;sensor_type;location;lat;lon;timestamp;P1;durP1;ratioP1;P2;durP2;ratioP2
11771;SDS011;12556;55.748;13.194;2023-06-04T00:00:41;3.43;;;1.30;;
11771;SDS011;12556;55.748;13.194;2023-06-04T00:03:08;4.30;;;1.37;;
11771;SDS011;12556;55.748;13.194;2023-06-04T00:05:35;2.43;;;1.40;;
11771;SDS011;12556;55.748;13.194;2023-06-04T00:08:01;3.33;;;1.47;;
11771;SDS011;12556;55.748;13.194;2023-06-04T00:10:28;1.93;;;1.50;;
11771;SDS011;12556;55.748;13.194;2023-06-04T00:12:56;1.43;;;1.33;;
11771;SDS011;12556;55.748;13.194;2023-06-04T00:15:23;1.30;;;1.20;;
11771;SDS011;12556;55.748;13.194;2023-06-04T00:17:51;1.23;;;1.13;;
11771;SDS011;12556;55.748;13.194;2023-06-04T00:20:18;1.77;;;1.10;;
11771;SDS011;12556;55.748;13.194;2023-06-04T00:22:45;1.90;;;1.50;;
11771;SDS011;12556;55.748;13.194;2023-06-04T00:25:12;1.97;;;1.57;;
11771;SDS011;12556;55.748;13.194;2023-06-04T00:27:38;4.33;;;1.50;;
11771;SDS011;12556;55.748;13.194;2023-06-04T00:30:06;2.10;;;1.30;;
11771;SDS011;12556;55.748;13.194;2023-06-04T00:32:34;2.77;;;1.43;;
11771;SDS011;12556;55.748;13.194;2023-06-04T00:35:03;2.47;;;1.83;;
11771;SDS011;12556;55.748;13.194;2023-06-04T00:37:30;2.10;;;1.73;;
11771;SDS011;12556;55.748;13.194;2023-06-04T00:39:58;3.00;;;1.50;;
11771;SDS011;12556;55.748;13.194;2023-06-04T00:42:25;2.33;;;1.67;;
11771;SDS011;12556;55.748;13.194;2023-06-04T00:44:52;2.50;;;1.43;;
11771;SDS011;12556;55.748;13.194;2023-06-04T00:47:22;2.67;;;1.70;;
11771;SDS011;12556;55.748;13.194;2023-06-04T00:49:49;3.30;;;1.60;;
11771;SDS011;12556;55.748;13.194;2023-06-04T00:52:18;4.87;;;1.70;;
11771;SDS011;12556;55.748;13.194;2023-06-04T00:54:45;1.70;;;1.60;;
11771;SDS011;12556;55.748;13.194;2023-06-04T00:57:12;2.43;;;1.70;;
11771;SDS011;12556;55.748;13.194;2023-06-04T00:59:39;3.23;;;2.00;;
11771;SDS011;12556;55.748;13.194;2023-06-04T01:02:08;2.63;;;1.60;;
11771;SDS011;12556;55.748;13.194;2023-06-04T01:04:37;3.30;;;1.70;;
11771;SDS011;12556;55.748;13.194;2023-06-04T01:07:10;2.13;;;1.67;;
11771;SDS011;12556;55.748;13.194;2023-06-04T01:09:41;2.70;;;1.63;;
11771;SDS011;12556;55.748;13.194;2023-06-04T01:12:08;2.00;;;1.80;;
11771;SDS011;12556;55.748;13.194;2023-06-04T01:14:36;2.43;;;1.73;;
11771;SDS011;12556;55.748;13.194;2023-06-04T01:17:05;2.33;;;1.80;;
11771;SDS011;12556;55.748;13.194;2023-06-04T01:19:47;1.93;;;1.77;;
11771;SDS011;12556;55.748;13.194;2023-06-04T01:22:31;1.77;;;1.53;;
11771;SDS011;12556;55.748;13.194;2023-06-04T01:25:04;2.13;;;1.50;;
11771;SDS011;12556;55.748;13.194;2023-06-04T01:27:36;4.03;;;1.77;;
11771;SDS011;12556;55.748;13.194;2023-06-04T01:30:05;2.17;;;1.60;;
11771;SDS011;12556;55.748;13.194;2023-06-04T01:32:34;1.50;;;1.40;;
11771;SDS011;12556;55.748;13.194;2023-06-04T01:35:02;2.50;;;1.87;;
11771;SDS011;12556;55.748;13.194;2023-06-04T01:37:29;3.67;;;1.60;;
11771;SDS011;12556;55.748;13.194;2023-06-04T01:39:56;3.90;;;2.03;;
11771;SDS011;12556;55.748;13.194;2023-06-04T01:42:24;2.47;;;1.70;;
11771;SDS011;12556;55.748;13.194;2023-06-04T01:44:51;1.90;;;1.60;;
11771;SDS011;12556;55.748;13.194;2023-06-04T01:47:17;2.23;;;1.90;;
11771;SDS011;12556;55.748;13.194;2023-06-04T01:49:45;2.43;;;1.70;;
11771;SDS011;12556;55.748;13.194;2023-06-04T01:52:12;5.77;;;1.90;;
11771;SDS011;12556;55.748;13.194;2023-06-04T01:54:41;5.07;;;1.90;;
11771;SDS011;12556;55.748;13.194;2023-06-04T01:57:08;4.53;;;1.90;;
11771;SDS011;12556;55.748;13.194;2023-06-04T01:59:36;2.87;;;1.60;;
11771;SDS011;12556;55.748;13.194;2023-06-04T02:02:04;4.73;;;1.70;;
11771;SDS011;12556;55.748;13.194;2023-06-04T02:04:31;3.73;;;2.10;;
11771;SDS011;12556;55.748;13.194;2023-06-04T02:06:58;4.50;;;1.90;;
11771;SDS011;12556;55.748;13.194;2023-06-04T02:09:25;3.70;;;1.90;;
11771;SDS011;12556;55.748;13.194;2023-06-04T02:11:52;5.67;;;1.83;;
11771;SDS011;12556;55.748;13.194;2023-06-04T02:14:19;1.73;;;1.63;;
11771;SDS011;12556;55.748;13.194;2023-06-04T02:16:47;3.93;;;1.80;;
11771;SDS011;12556;55.748;13.194;2023-06-04T02:19:15;3.00;;;1.80;;
11771;SDS011;12556;55.748;13.194;2023-06-04T02:21:43;2.57;;;1.97;;
11771;SDS011;12556;55.748;13.194;2023-06-04T02:24:10;3.20;;;2.00;;
11771;SDS011;12556;55.748;13.194;2023-06-04T02:26:37;2.93;;;1.83;;
11771;SDS011;12556;55.748;13.194;2023-06-04T02:29:04;5.77;;;1.90;;
11771;SDS011;12556;55.748;13.194;2023-06-04T02:31:31;1.90;;;1.80;;
11771;SDS011;12556;55.748;13.194;2023-06-04T02:33:59;2.23;;;1.60;;
11771;SDS011;12556;55.748;13.194;2023-06-04T02:36:26;4.97;;;2.00;;
11771;SDS011;12556;55.748;13.194;2023-06-04T02:38:54;3.10;;;1.63;;
11771;SDS011;12556;55.748;13.194;2023-06-04T02:41:21;3.10;;;1.97;;
11771;SDS011;12556;55.748;13.194;2023-06-04T02:43:49;3.23;;;2.00;;
11771;SDS011;12556;55.748;13.194;2023-06-04T02:46:15;2.13;;;1.90;;
11771;SDS011;12556;55.748;13.194;2023-06-04T02:48:42;2.47;;;1.87;;
11771;SDS011;12556;55.748;13.194;2023-06-04T02:51:11;5.07;;;2.07;;
11771;SDS011;12556;55.748;13.194;2023-06-04T02:53:38;4.10;;;2.00;;
11771;SDS011;12556;55.748;13.194;2023-06-04T02:56:06;2.80;;;2.00;;
11771;SDS011;12556;55.748;13.194;2023-06-04T02:58:33;3.07;;;1.57;;
11771;SDS011;12556;55.748;13.194;2023-06-04T03:01:04;2.70;;;2.10;;
11771;SDS011;12556;55.748;13.194;2023-06-04T03:03:31;6.57;;;2.67;;
11771;SDS011;12556;55.748;13.194;2023-06-04T03:05:58;5.33;;;2.07;;
11771;SDS011;12556;55.748;13.194;2023-06-04T03:08:28;3.23;;;1.90;;
11771;SDS011;12556;55.748;13.194;2023-06-04T03:10:54;2.87;;;1.93;;
11771;SDS011;12556;55.748;13.194;2023-06-04T03:13:21;2.37;;;1.87;;
11771;SDS011;12556;55.748;13.194;2023-06-04T03:15:48;3.40;;;1.90;;
11771;SDS011;12556;55.748;13.194;2023-06-04T03:18:16;3.67;;;1.93;;
11771;SDS011;12556;55.748;13.194;2023-06-04T03:20:43;5.20;;;2.57;;
11771;SDS011;12556;55.748;13.194;2023-06-04T03:23:10;3.43;;;2.10;;
11771;SDS011;12556;55.748;13.194;2023-06-04T03:25:38;5.47;;;2.13;;
11771;SDS011;12556;55.748;13.194;2023-06-04T03:28:05;4.00;;;1.80;;
11771;SDS011;12556;55.748;13.194;2023-06-04T03:30:32;7.17;;;2.13;;
11771;SDS011;12556;55.748;13.194;2023-06-04T03:32:59;3.83;;;1.90;;
11771;SDS011;12556;55.748;13.194;2023-06-04T03:35:27;2.67;;;1.83;;
11771;SDS011;12556;55.748;13.194;2023-06-04T03:37:54;5.43;;;2.53;;
11771;SDS011;12556;55.748;13.194;2023-06-04T03:40:20;4.40;;;1.90;;
11771;SDS011;12556;55.748;13.194;2023-06-04T03:42:48;4.87;;;2.00;;
11771;SDS011;12556;55.748;13.194;2023-06-04T03:45:15;2.70;;;2.10;;
11771;SDS011;12556;55.748;13.194;2023-06-04T03:47:42;3.93;;;2.30;;
11771;SDS011;12556;55.748;13.194;2023-06-04T03:50:09;4.97;;;2.20;;
11771;SDS011;12556;55.748;13.194;2023-06-04T03:52:36;4.40;;;1.97;;
11771;SDS011;12556;55.748;13.194;2023-06-04T03:55:03;2.80;;;2.40;;
11771;SDS011;12556;55.748;13.194;2023-06-04T03:57:30;10.07;;;2.40;;
11771;SDS011;12556;55.748;13.194;2023-06-04T03:59:59;6.33;;;2.23;;
11771;SDS011;12556;55.748;13.194;2023-06-04T04:02:26;3.70;;;2.80;;
11771;SDS011;12556;55.748;13.194;2023-06-04T04:04:53;7.13;;;2.50;;
11771;SDS011;12556;55.748;13.194;2023-06-04T04:07:22;6.20;;;2.57;;
11771;SDS011;12556;55.748;13.194;2023-06-04T04:09:49;6.73;;;2.63;;
11771;SDS011;12556;55.748;13.194;2023-06-04T04:12:17;5.40;;;2.40;;
11771;SDS011;12556;55.748;13.194;2023-06-04T04:14:44;4.93;;;2.70;;
11771;SDS011;12556;55.748;13.194;2023-06-04T04:17:13;4.57;;;2.60;;
11771;SDS011;12556;55.748;13.194;2023-06-04T04:19:40;6.57;;;2.60;;
11771;SDS011;12556;55.748;13.194;2023-06-04T04:22:07;6.00;;;2.37;;
11771;SDS011;12556;55.748;13.194;2023-06-04T04:24:34;5.37;;;2.43;;
11771;SDS011;12556;55.748;13.194;2023-06-04T04:27:02;5.00;;;2.23;;
11771;SDS011;12556;55.748;13.194;2023-06-04T04:29:30;4.30;;;2.47;;
11771;SDS011;12556;55.748;13.194;2023-06-04T04:31:59;6.97;;;2.97;;
11771;SDS011;12556;55.748;13.194;2023-06-04T04:34:36;6.57;;;2.30;;
11771;SDS011;12556;55.748;13.194;2023-06-04T04:37:04;5.47;;;2.90;;
11771;SDS011;12556;55.748;13.194;2023-06-04T04:39:33;7.63;;;2.23;;
11771;SDS011;12556;55.748;13.194;2023-06-04T04:42:01;6.37;;;2.60;;
11771;SDS011;12556;55.748;13.194;2023-06-04T04:44:28;6.53;;;2.73;;
11771;SDS011;12556;55.748;13.194;2023-06-04T04:46:55;3.33;;;1.93;;
11771;SDS011;12556;55.748;13.194;2023-06-04T04:49:22;6.33;;;2.40;;
11771;SDS011;12556;55.748;13.194;2023-06-04T04:51:50;7.10;;;2.80;;
11771;SDS011;12556;55.748;13.194;2023-06-04T04:54:17;9.63;;;2.97;;
11771;SDS011;12556;55.748;13.194;2023-06-04T04:56:44;7.67;;;2.50;;
11771;SDS011;12556;55.748;13.194;2023-06-04T04:59:11;6.33;;;2.60;;
11771;SDS011;12556;55.748;13.194;2023-06-04T05:01:37;7.60;;;2.83;;
11771;SDS011;12556;55.748;13.194;2023-06-04T05:04:04;6.93;;;2.90;;
11771;SDS011;12556;55.748;13.194;2023-06-04T05:06:31;6.10;;;2.63;;
11771;SDS011;12556;55.748;13.194;2023-06-04T05:08:59;8.67;;;3.47;;
11771;SDS011;12556;55.748;13.194;2023-06-04T05:11:26;7.47;;;3.13;;
11771;SDS011;12556;55.748;13.194;2023-06-04T05:13:53;7.40;;;2.70;;
11771;SDS011;12556;55.748;13.194;2023-06-04T05:16:20;10.10;;;2.77;;
11771;SDS011;12556;55.748;13.194;2023-06-04T05:18:47;4.90;;;3.00;;
11771;SDS011;12556;55.748;13.194;2023-06-04T05:21:16;7.40;;;3.00;;
11771;SDS011;12556;55.748;13.194;2023-06-04T05:23:43;7.70;;;2.90;;
11771;SDS011;12556;55.748;13.194;2023-06-04T05:26:14;8.20;;;2.50;;
11771;SDS011;12556;55.748;13.194;2023-06-04T05:28:41;7.30;;;2.83;;
11771;SDS011;12556;55.748;13.194;2023-06-04T05:31:09;9.60;;;2.93;;
11771;SDS011;12556;55.748;13.194;2023-06-04T05:33:38;5.70;;;2.20;;
11771;SDS011;12556;55.748;13.194;2023-06-04T05:36:05;9.50;;;3.37;;
11771;SDS011;12556;55.748;13.194;2023-06-04T05:38:32;8.60;;;2.87;;
11771;SDS011;12556;55.748;13.194;2023-06-04T05:41:00;8.83;;;3.27;;
11771;SDS011;12556;55.748;13.194;2023-06-04T05:43:29;6.43;;;2.87;;
11771;SDS011;12556;55.748;13.194;2023-06-04T05:45:56;7.60;;;2.80;;
11771;SDS011;12556;55.748;13.194;2023-06-04T05:48:23;6.87;;;2.80;;
11771;SDS011;12556;55.748;13.194;2023-06-04T05:50:49;10.13;;;3.13;;
11771;SDS011;12556;55.748;13.194;2023-06-04T05:53:16;7.73;;;2.70;;
11771;SDS011;12556;55.748;13.194;2023-06-04T05:55:43;11.93;;;3.10;;
11771;SDS011;12556;55.748;13.194;2023-06-04T05:58:10;7.70;;;3.10;;
11771;SDS011;12556;55.748;13.194;2023-06-04T06:00:38;6.17;;;3.07;;
11771;SDS011;12556;55.748;13.194;2023-06-04T06:03:05;5.97;;;2.83;;
11771;SDS011;12556;55.748;13.194;2023-06-04T06:05:32;5.80;;;2.33;;
11771;SDS011;12556;55.748;13.194;2023-06-04T06:07:59;8.87;;;3.43;;
11771;SDS011;12556;55.748;13.194;2023-06-04T06:10:26;7.77;;;3.10;;
11771;SDS011;12556;55.748;13.194;2023-06-04T06:12:54;7.70;;;2.90;;
11771;SDS011;12556;55.748;13.194;2023-06-04T06:15:21;10.47;;;3.00;;
11771;SDS011;12556;55.748;13.194;2023-06-04T06:17:50;9.40;;;3.10;;
11771;SDS011;12556;55.748;13.194;2023-06-04T06:20:17;7.40;;;2.60;;
11771;SDS011;12556;55.748;13.194;2023-06-04T06:22:44;7.73;;;2.87;;
11771;SDS011;12556;55.748;13.194;2023-06-04T06:25:11;7.40;;;2.83;;
11771;SDS011;12556;55.748;13.194;2023-06-04T06:27:38;5.63;;;2.80;;
11771;SDS011;12556;55.748;13.194;2023-06-04T06:30:06;6.97;;;3.13;;
11771;SDS011;12556;55.748;13.194;2023-06-04T06:32:33;7.57;;;3.03;;
11771;SDS011;12556;55.748;13.194;2023-06-04T06:35:02;8.03;;;2.73;;
11771;SDS011;12556;55.748;13.194;2023-06-04T06:37:29;4.43;;;2.50;;
11771;SDS011;12556;55.748;13.194;2023-06-04T06:39:56;6.20;;;2.93;;
11771;SDS011;12556;55.748;13.194;2023-06-04T06:42:23;7.93;;;2.77;;
11771;SDS011;12556;55.748;13.194;2023-06-04T06:44:50;5.90;;;2.90;;
11771;SDS011;12556;55.748;13.194;2023-06-04T06:47:17;4.87;;;2.60;;
11771;SDS011;12556;55.748;13.194;2023-06-04T06:49:43;5.72;;;2.50;;
11771;SDS011;12556;55.748;13.194;2023-06-04T06:52:12;10.17;;;3.13;;
11771;SDS011;12556;55.748;13.194;2023-06-04T06:54:38;6.72;;;3.00;;
11771;SDS011;12556;55.748;13.194;2023-06-04T06:57:06;6.60;;;3.00;;
11771;SDS011;12556;55.748;13.194;2023-06-04T06:59:34;7.30;;;2.93;;
11771;SDS011;12556;55.748;13.194;2023-06-04T07:02:01;9.40;;;3.07;;
11771;SDS011;12556;55.748;13.194;2023-06-04T07:04:28;6.57;;;2.97;;
11771;SDS011;12556;55.748;13.194;2023-06-04T07:06:55;7.10;;;2.90;;
11771;SDS011;12556;55.748;13.194;2023-06-04T07:09:23;8.50;;;2.90;;
11771;SDS011;12556;55.748;13.194;2023-06-04T07:11:50;8.35;;;2.97;;
11771;SDS011;12556;55.748;13.194;2023-06-04T07:14:17;7.10;;;3.10;;
11771;SDS011;12556;55.748;13.194;2023-06-04T07:16:43;6.88;;;2.85;;
11771;SDS011;12556;55.748;13.194;2023-06-04T07:19:10;8.25;;;2.88;;
11771;SDS011;12556;55.748;13.194;2023-06-04T07:21:37;8.10;;;3.03;;
11771;SDS011;12556;55.748;13.194;2023-06-04T07:24:04;6.10;;;3.05;;
11771;SDS011;12556;55.748;13.194;2023-06-04T07:26:33;5.43;;;2.67;;
11771;SDS011;12556;55.748;13.194;2023-06-04T07:29:00;5.15;;;2.45;;
11771;SDS011;12556;55.748;13.194;2023-06-04T07:31:27;5.88;;;2.78;;
11771;SDS011;12556;55.748;13.194;2023-06-04T07:33:53;5.75;;;3.03;;
11771;SDS011;12556;55.748;13.194;2023-06-04T07:36:20;5.65;;;2.92;;
11771;SDS011;12556;55.748;13.194;2023-06-04T07:38:47;6.20;;;2.97;;
11771;SDS011;12556;55.748;13.194;2023-06-04T07:41:14;5.55;;;2.92;;
11771;SDS011;12556;55.748;13.194;2023-06-04T07:43:43;7.28;;;2.92;;
11771;SDS011;12556;55.748;13.194;2023-06-04T07:46:10;8.90;;;3.38;;
11771;SDS011;12556;55.748;13.194;2023-06-04T07:48:37;5.85;;;2.83;;
11771;SDS011;12556;55.748;13.194;2023-06-04T07:51:04;5.78;;;3.15;;
11771;SDS011;12556;55.748;13.194;2023-06-04T07:53:31;4.18;;;3.03;;
11771;SDS011;12556;55.748;13.194;2023-06-04T07:55:58;5.18;;;2.60;;
11771;SDS011;12556;55.748;13.194;2023-06-04T07:58:25;7.72;;;3.50;;
11771;SDS011;12556;55.748;13.194;2023-06-04T08:00:54;7.32;;;3.90;;
11771;SDS011;12556;55.748;13.194;2023-06-04T08:03:21;5.75;;;4.32;;
11771;SDS011;12556;55.748;13.194;2023-06-04T08:05:48;3.75;;;3.40;;
11771;SDS011;12556;55.748;13.194;2023-06-04T08:08:15;6.65;;;4.55;;
11771;SDS011;12556;55.748;13.194;2023-06-04T08:10:42;8.90;;;4.63;;
11771;SDS011;12556;55.748;13.194;2023-06-04T08:13:09;5.78;;;4.63;;
11771;SDS011;12556;55.748;13.194;2023-06-04T08:15:35;5.28;;;3.65;;
11771;SDS011;12556;55.748;13.194;2023-06-04T08:18:04;5.80;;;3.58;;
11771;SDS011;12556;55.748;13.194;2023-06-04T08:20:31;5.10;;;4.63;;
11771;SDS011;12556;55.748;13.194;2023-06-04T08:22:57;9.55;;;8.88;;
11771;SDS011;12556;55.748;13.194;2023-06-04T08:25:24;5.53;;;4.40;;
11771;SDS011;12556;55.748;13.194;2023-06-04T08:27:51;8.02;;;7.38;;
11771;SDS011;12556;55.748;13.194;2023-06-04T08:30:18;7.00;;;6.38;;
11771;SDS011;12556;55.748;13.194;2023-06-04T08:32:45;6.18;;;5.80;;
11771;SDS011;12556;55.748;13.194;2023-06-04T08:35:13;8.10;;;6.38;;
11771;SDS011;12556;55.748;13.194;2023-06-04T08:37:40;9.60;;;8.82;;
11771;SDS011;12556;55.748;13.194;2023-06-04T08:40:08;12.23;;;11.35;;
11771;SDS011;12556;55.748;13.194;2023-06-04T08:42:37;16.02;;;15.23;;
11771;SDS011;12556;55.748;13.194;2023-06-04T08:45:10;9.00;;;8.25;;
11771;SDS011;12556;55.748;13.194;2023-06-04T08:47:39;9.32;;;8.65;;
11771;SDS011;12556;55.748;13.194;2023-06-04T08:50:09;21.08;;;20.00;;
11771;SDS011;12556;55.748;13.194;2023-06-04T08:52:39;17.65;;;16.58;;
11771;SDS011;12556;55.748;13.194;2023-06-04T08:55:06;23.30;;;22.02;;
11771;SDS011;12556;55.748;13.194;2023-06-04T08:57:37;23.55;;;22.40;;
11771;SDS011;12556;55.748;13.194;2023-06-04T09:00:05;20.40;;;19.40;;
11771;SDS011;12556;55.748;13.194;2023-06-04T09:02:33;25.88;;;24.60;;
11771;SDS011;12556;55.748;13.194;2023-06-04T09:05:02;15.00;;;14.25;;
11771;SDS011;12556;55.748;13.194;2023-06-04T09:07:33;33.88;;;32.30;;
11771;SDS011;12556;55.748;13.194;2023-06-04T09:10:04;34.92;;;33.22;;
11771;SDS011;12556;55.748;13.194;2023-06-04T09:12:33;31.35;;;29.70;;
11771;SDS011;12556;55.748;13.194;2023-06-04T09:15:02;25.85;;;24.58;;
11771;SDS011;12556;55.748;13.194;2023-06-04T09:17:30;27.48;;;26.13;;
11771;SDS011;12556;55.748;13.194;2023-06-04T09:19:56;42.38;;;40.47;;
11771;SDS011;12556;55.748;13.194;2023-06-04T09:22:31;36.55;;;34.80;;
11771;SDS011;12556;55.748;13.194;2023-06-04T09:24:58;40.50;;;38.65;;
11771;SDS011;12556;55.748;13.194;2023-06-04T09:27:26;53.97;;;51.72;;
11771;SDS011;12556;55.748;13.194;2023-06-04T09:30:03;42.85;;;40.83;;
11771;SDS011;12556;55.748;13.194;2023-06-04T09:32:31;52.15;;;49.80;;
11771;SDS011;12556;55.748;13.194;2023-06-04T09:35:07;46.97;;;45.00;;
11771;SDS011;12556;55.748;13.194;2023-06-04T09:37:36;64.20;;;61.33;;
11771;SDS011;12556;55.748;13.194;2023-06-04T09:40:03;65.38;;;62.63;;
11771;SDS011;12556;55.748;13.194;2023-06-04T09:42:42;63.85;;;60.85;;
11771;SDS011;12556;55.748;13.194;2023-06-04T09:45:10;63.63;;;60.97;;
11771;SDS011;12556;55.748;13.194;2023-06-04T09:47:41;72.57;;;69.60;;
11771;SDS011;12556;55.748;13.194;2023-06-04T09:50:09;57.13;;;54.70;;
11771;SDS011;12556;55.748;13.194;2023-06-04T09:52:37;72.57;;;69.35;;
11771;SDS011;12556;55.748;13.194;2023-06-04T09:55:14;79.38;;;76.00;;
11771;SDS011;12556;55.748;13.194;2023-06-04T09:57:45;75.20;;;72.05;;
11771;SDS011;12556;55.748;13.194;2023-06-04T10:00:14;68.78;;;65.88;;
11771;SDS011;12556;55.748;13.194;2023-06-04T10:02:43;80.53;;;77.30;;
11771;SDS011;12556;55.748;13.194;2023-06-04T10:05:11;90.97;;;87.25;;
11771;SDS011;12556;55.748;13.194;2023-06-04T10:07:39;101.88;;;97.90;;
11771;SDS011;12556;55.748;13.194;2023-06-04T10:10:10;87.88;;;84.50;;
11771;SDS011;12556;55.748;13.194;2023-06-04T10:12:41;91.10;;;87.25;;
11771;SDS011;12556;55.748;13.194;2023-06-04T10:15:11;108.55;;;104.35;;
11771;SDS011;12556;55.748;13.194;2023-06-04T10:17:39;106.05;;;101.53;;
11771;SDS011;12556;55.748;13.194;2023-06-04T10:20:06;106.35;;;102.15;;
11771;SDS011;12556;55.748;13.194;2023-06-04T10:22:35;119.70;;;115.07;;
11771;SDS011;12556;55.748;13.194;2023-06-04T10:25:03;114.35;;;109.80;;
11771;SDS011;12556;55.748;13.194;2023-06-04T10:27:31;131.93;;;126.80;;
11771;SDS011;12556;55.748;13.194;2023-06-04T10:30:00;110.03;;;105.68;;
11771;SDS011;12556;55.748;13.194;2023-06-04T10:32:29;147.38;;;141.52;;
11771;SDS011;12556;55.748;13.194;2023-06-04T10:34:57;116.55;;;111.82;;
11771;SDS011;12556;55.748;13.194;2023-06-04T10:37:24;135.98;;;130.85;;
11771;SDS011;12556;55.748;13.194;2023-06-04T10:39:52;125.55;;;120.75;;
11771;SDS011;12556;55.748;13.194;2023-06-04T10:42:19;144.77;;;139.10;;
11771;SDS011;12556;55.748;13.194;2023-06-04T10:44:47;115.63;;;111.07;;
11771;SDS011;12556;55.748;13.194;2023-06-04T10:47:20;128.30;;;123.20;;
11771;SDS011;12556;55.748;13.194;2023-06-04T10:49:49;125.18;;;120.28;;
11771;SDS011;12556;55.748;13.194;2023-06-04T10:52:17;175.55;;;168.95;;
11771;SDS011;12556;55.748;13.194;2023-06-04T10:54:44;156.05;;;150.18;;
11771;SDS011;12556;55.748;13.194;2023-06-04T10:57:14;141.45;;;135.90;;
11771;SDS011;12556;55.748;13.194;2023-06-04T10:59:52;176.48;;;169.80;;
11771;SDS011;12556;55.748;13.194;2023-06-04T11:02:20;189.48;;;182.45;;
11771;SDS011;12556;55.748;13.194;2023-06-04T11:04:47;163.35;;;157.20;;
11771;SDS011;12556;55.748;13.194;2023-06-04T11:07:26;167.02;;;160.80;;
11771;SDS011;12556;55.748;13.194;2023-06-04T11:09:53;126.60;;;121.43;;
11771;SDS011;12556;55.748;13.194;2023-06-04T11:12:21;171.00;;;164.68;;
11771;SDS011;12556;55.748;13.194;2023-06-04T11:14:54;179.75;;;173.00;;
11771;SDS011;12556;55.748;13.194;2023-06-04T11:17:21;161.77;;;155.77;;
11771;SDS011;12556;55.748;13.194;2023-06-04T11:19:50;162.13;;;155.95;;
11771;SDS011;12556;55.748;13.194;2023-06-04T11:22:20;217.52;;;209.38;;
11771;SDS011;12556;55.748;13.194;2023-06-04T11:24:47;224.98;;;216.27;;
11771;SDS011;12556;55.748;13.194;2023-06-04T11:27:17;241.48;;;232.27;;
11771;SDS011;12556;55.748;13.194;2023-06-04T11:29:45;251.40;;;241.70;;
11771;SDS011;12556;55.748;13.194;2023-06-04T11:32:20;240.60;;;231.35;;
11771;SDS011;12556;55.748;13.194;2023-06-04T11:34:49;236.13;;;227.38;;
11771;SDS011;12556;55.748;13.194;2023-06-04T11:37:16;248.18;;;238.48;;
11771;SDS011;12556;55.748;13.194;2023-06-04T11:39:43;291.35;;;280.27;;
11771;SDS011;12556;55.748;13.194;2023-06-04T11:42:10;290.30;;;278.88;;
11771;SDS011;12556;55.748;13.194;2023-06-04T11:44:37;258.42;;;248.40;;
11771;SDS011;12556;55.748;13.194;2023-06-04T11:47:10;204.07;;;196.35;;
11771;SDS011;12556;55.748;13.194;2023-06-04T11:49:37;241.45;;;232.00;;
11771;SDS011;12556;55.748;13.194;2023-06-04T11:52:06;244.55;;;235.18;;
11771;SDS011;12556;55.748;13.194;2023-06-04T11:54:34;304.88;;;292.58;;
11771;SDS011;12556;55.748;13.194;2023-06-04T11:57:03;320.65;;;307.73;;
11771;SDS011;12556;55.748;13.194;2023-06-04T11:59:31;269.98;;;259.02;;
11771;SDS011;12556;55.748;13.194;2023-06-04T12:01:58;300.40;;;288.58;;
11771;SDS011;12556;55.748;13.194;2023-06-04T12:04:29;306.70;;;294.55;;
11771;SDS011;12556;55.748;13.194;2023-06-04T12:06:57;330.15;;;316.70;;
11771;SDS011;12556;55.748;13.194;2023-06-04T12:09:27;335.17;;;321.85;;
11771;SDS011;12556;55.748;13.194;2023-06-04T12:11:59;254.20;;;244.43;;
11771;SDS011;12556;55.748;13.194;2023-06-04T12:14:26;257.25;;;247.13;;
11771;SDS011;12556;55.748;13.194;2023-06-04T12:16:54;289.60;;;278.25;;
11771;SDS011;12556;55.748;13.194;2023-06-04T12:19:21;313.20;;;300.55;;
11771;SDS011;12556;55.748;13.194;2023-06-04T12:21:58;282.58;;;271.83;;
11771;SDS011;12556;55.748;13.194;2023-06-04T12:24:28;308.67;;;296.58;;
11771;SDS011;12556;55.748;13.194;2023-06-04T12:27:03;334.77;;;321.92;;
11771;SDS011;12556;55.748;13.194;2023-06-04T12:29:31;328.63;;;315.50;;
11771;SDS011;12556;55.748;13.194;2023-06-04T12:32:02;374.23;;;359.05;;
11771;SDS011;12556;55.748;13.194;2023-06-04T12:34:31;362.90;;;347.40;;
11771;SDS011;12556;55.748;13.194;2023-06-04T12:36:58;301.33;;;289.15;;
11771;SDS011;12556;55.748;13.194;2023-06-04T12:39:25;321.88;;;308.95;;
11771;SDS011;12556;55.748;13.194;2023-06-04T12:41:53;367.42;;;351.85;;
11771;SDS011;12556;55.748;13.194;2023-06-04T12:44:20;347.15;;;332.73;;
11771;SDS011;12556;55.748;13.194;2023-06-04T12:46:47;319.55;;;306.92;;
11771;SDS011;12556;55.748;13.194;2023-06-04T12:49:14;310.33;;;298.10;;
11771;SDS011;12556;55.748;13.194;2023-06-04T12:51:40;328.00;;;314.85;;
11771;SDS011;12556;55.748;13.194;2023-06-04T12:54:09;407.38;;;390.30;;
11771;SDS011;12556;55.748;13.194;2023-06-04T12:56:36;345.33;;;331.10;;
11771;SDS011;12556;55.748;13.194;2023-06-04T12:59:04;376.90;;;361.23;;
11771;SDS011;12556;55.748;13.194;2023-06-04T13:01:32;369.02;;;353.88;;
11771;SDS011;12556;55.748;13.194;2023-06-04T13:03:58;371.75;;;356.00;;
11771;SDS011;12556;55.748;13.194;2023-06-04T13:06:25;394.08;;;377.35;;
11771;SDS011;12556;55.748;13.194;2023-06-04T13:08:52;384.55;;;368.50;;
11771;SDS011;12556;55.748;13.194;2023-06-04T13:11:20;356.52;;;342.20;;
11771;SDS011;12556;55.748;13.194;2023-06-04T13:13:46;347.00;;;332.75;;
11771;SDS011;12556;55.748;13.194;2023-06-04T13:16:15;376.00;;;360.23;;
11771;SDS011;12556;55.748;13.194;2023-06-04T13:18:42;419.83;;;401.15;;
11771;SDS011;12556;55.748;13.194;2023-06-04T13:21:08;395.92;;;379.13;;
11771;SDS011;12556;55.748;13.194;2023-06-04T13:23:35;402.00;;;384.98;;
11771;SDS011;12556;55.748;13.194;2023-06-04T13:26:02;399.42;;;382.10;;
11771;SDS011;12556;55.748;13.194;2023-06-04T13:28:29;421.30;;;403.40;;
11771;SDS011;12556;55.748;13.194;2023-06-04T13:30:56;399.92;;;383.08;;
11771;SDS011;12556;55.748;13.194;2023-06-04T13:33:25;400.30;;;383.02;;
11771;SDS011;12556;55.748;13.194;2023-06-04T13:35:52;354.88;;;340.00;;
11771;SDS011;12556;55.748;13.194;2023-06-04T13:38:20;397.73;;;380.65;;
11771;SDS011;12556;55.748;13.194;2023-06-04T13:40:46;338.65;;;324.88;;
11771;SDS011;12556;55.748;13.194;2023-06-04T13:43:13;365.23;;;350.35;;
11771;SDS011;12556;55.748;13.194;2023-06-04T13:45:40;319.08;;;306.48;;
11771;SDS011;12556;55.748;13.194;2023-06-04T13:48:09;352.13;;;337.98;;
11771;SDS011;12556;55.748;13.194;2023-06-04T13:50:38;306.75;;;293.90;;
11771;SDS011;12556;55.748;13.194;2023-06-04T13:53:05;339.98;;;326.35;;
11771;SDS011;12556;55.748;13.194;2023-06-04T13:55:32;349.15;;;334.88;;
11771;SDS011;12556;55.748;13.194;2023-06-04T13:57:58;407.63;;;390.20;;
11771;SDS011;12556;55.748;13.194;2023-06-04T14:00:25;395.00;;;378.35;;
11771;SDS011;12556;55.748;13.194;2023-06-04T14:02:55;394.58;;;377.40;;
11771;SDS011;12556;55.748;13.194;2023-06-04T14:05:22;417.58;;;399.38;;
11771;SDS011;12556;55.748;13.194;2023-06-04T14:07:54;354.70;;;339.98;;
11771;SDS011;12556;55.748;13.194;2023-06-04T14:10:21;401.55;;;384.23;;
11771;SDS011;12556;55.748;13.194;2023-06-04T14:12:48;325.08;;;311.90;;
11771;SDS011;12556;55.748;13.194;2023-06-04T14:15:15;321.98;;;309.17;;
11771;SDS011;12556;55.748;13.194;2023-06-04T14:17:42;333.15;;;319.60;;
11771;SDS011;12556;55.748;13.194;2023-06-04T14:20:09;310.52;;;297.95;;